createdAt,value
2022-08-03T00:00:07.682Z,99955.25
2022-08-03T00:00:54.449Z,99958.19
2022-08-03T00:01:42.370Z,99956.31
2022-08-03T00:02:29.152Z,99953.34
2022-08-03T00:03:15.957Z,99956.31
2022-08-03T00:04:03.222Z,99954.22
2022-08-03T00:04:50.059Z,99959.22
2022-08-03T00:05:37.219Z,99959.81
2022-08-03T00:06:24.057Z,99952.50
2022-08-03T00:07:10.910Z,99952.94
2022-08-03T00:07:57.680Z,99958.78
2022-08-03T00:08:44.722Z,99953.81
2022-08-03T00:09:35.488Z,99954.87
2022-08-03T00:10:22.718Z,99957.16
2022-08-03T00:11:09.476Z,99957.75
2022-08-03T00:11:56.187Z,99951.69
2022-08-03T00:12:42.890Z,99952.53
2022-08-03T00:13:29.640Z,99944.97
2022-08-03T00:14:16.409Z,99952.44
2022-08-03T00:15:04.073Z,99953.72
2022-08-03T00:15:57.157Z,99956.69
2022-08-03T00:16:43.930Z,99955.44
2022-08-03T00:17:30.711Z,99952.16
2022-08-03T00:18:38.159Z,99958.00
2022-08-03T00:19:24.929Z,99956.72
2022-08-03T00:20:12.349Z,99956.13
2022-08-03T00:20:59.079Z,99960.91
2022-08-03T00:21:45.861Z,99954.87
2022-08-03T00:22:35.499Z,99956.13
2022-08-03T00:23:22.209Z,99955.06
2022-08-03T00:24:09.048Z,99956.53
2022-08-03T00:24:55.897Z,99957.78
2022-08-03T00:25:42.800Z,99956.53
2022-08-03T00:26:29.589Z,99959.44
2022-08-03T00:27:16.626Z,99960.53
2022-08-03T00:28:04.769Z,99961.78
2022-08-03T00:28:51.699Z,99958.84
2022-08-03T00:29:59.609Z,99956.13
2022-08-03T00:30:45.407Z,99964.28
2022-08-03T00:31:45.004Z,99955.72
2022-08-03T00:32:44.989Z,99961.19
2022-08-03T00:33:58.072Z,99959.06
2022-08-03T00:34:57.769Z,99960.12
2022-08-03T00:35:51.068Z,99967.25
2022-08-03T00:36:37.939Z,99964.94
2022-08-03T00:37:24.654Z,99956.75
2022-08-03T00:38:28.479Z,99962.81
2022-08-03T00:39:15.259Z,99964.31
2022-08-03T00:40:03.609Z,99964.13
2022-08-03T00:40:52.329Z,99962.25
2022-08-03T00:41:39.069Z,99964.34
2022-08-03T00:42:28.525Z,99966.22
2022-08-03T00:43:15.790Z,99963.31
2022-08-03T00:44:02.610Z,99971.69
2022-08-03T00:44:49.541Z,99961.41
2022-08-03T00:45:40.058Z,99967.69
2022-08-03T00:46:26.651Z,99969.78
2022-08-03T00:47:13.529Z,99964.78
2022-08-03T00:48:01.730Z,99975.44
2022-08-03T00:48:52.137Z,99972.50
2022-08-03T00:49:41.979Z,99967.88
2022-08-03T00:50:31.159Z,99964.97
2022-08-03T00:51:19.294Z,99964.34
2022-08-03T00:52:09.437Z,99964.16
2022-08-03T00:52:57.501Z,99970.25
2022-08-03T00:53:44.321Z,99969.81
2022-08-03T00:54:31.100Z,99971.06
2022-08-03T00:55:18.110Z,99971.47
2022-08-03T00:56:05.209Z,99963.75
2022-08-03T00:56:59.467Z,99965.84
2022-08-03T00:57:46.809Z,99966.66
2022-08-03T00:58:33.690Z,99965.63
2022-08-03T00:59:21.500Z,99965.63
2022-08-03T01:00:09.909Z,99968.75
2022-08-03T01:00:56.876Z,99963.16
2022-08-03T01:01:43.760Z,99968.78
2022-08-03T01:02:30.539Z,99963.78
2022-08-03T01:03:17.302Z,99960.81
2022-08-03T01:04:04.121Z,99955.81
2022-08-03T01:04:50.970Z,99961.47
2022-08-03T01:05:56.969Z,99966.91
2022-08-03T01:06:49.091Z,99964.19
2022-08-03T01:08:03.940Z,99961.28
2022-08-03T01:09:09.310Z,99972.34
2022-08-03T01:10:07.059Z,99967.75
2022-08-03T01:11:09.389Z,99971.72
2022-08-03T01:12:04.288Z,99966.72
2022-08-03T01:12:54.070Z,99968.38
2022-08-03T01:14:18.537Z,99972.34
2022-08-03T01:15:11.620Z,99976.78
2022-08-03T01:16:11.280Z,99966.72
2022-08-03T01:17:02.440Z,99969.44
2022-08-03T01:17:55.830Z,99966.72
2022-08-03T01:18:53.781Z,99971.31
2022-08-03T01:19:51.341Z,99966.31
2022-08-03T01:20:41.409Z,99967.56
2022-08-03T01:21:37.049Z,99961.72
2022-08-03T01:23:03.659Z,99961.94
2022-08-03T01:24:07.687Z,99963.81
2022-08-03T01:25:04.723Z,99960.06
2022-08-03T01:26:21.439Z,99958.38
2022-08-03T01:27:18.630Z,99963.59
2022-08-03T01:28:24.248Z,99959.62
2022-08-03T01:29:33.969Z,99957.72
2022-08-03T01:30:21.021Z,99958.78
2022-08-03T01:31:09.930Z,99958.38
2022-08-03T01:32:58.801Z,99956.09
2022-08-03T01:33:15.669Z,99959.44
2022-08-03T01:34:04.620Z,99958.59
2022-08-03T01:35:03.104Z,99960.69
2022-08-03T01:36:10.041Z,99956.72
2022-08-03T01:36:57.859Z,99963.00
2022-08-03T01:38:00.104Z,99960.50
2022-08-03T01:38:51.379Z,99958.59
2022-08-03T01:39:39.999Z,99962.37
2022-08-03T01:40:28.053Z,99957.38
2022-08-03T01:41:19.069Z,99957.78
2022-08-03T01:42:08.098Z,99955.25
2022-08-03T01:42:56.438Z,99952.53
2022-08-03T01:44:28.126Z,99957.16
2022-08-03T01:44:52.799Z,99954.22
2022-08-03T01:45:40.017Z,99956.31
2022-08-03T01:46:27.329Z,99953.78
2022-08-03T01:47:14.463Z,99950.25
2022-08-03T01:48:02.088Z,99953.41
2022-08-03T01:48:49.519Z,99957.34
2022-08-03T01:49:40.354Z,99955.25
2022-08-03T01:50:29.579Z,99960.06
2022-08-03T01:51:18.910Z,99953.63
2022-08-03T01:52:06.678Z,99957.59
2022-08-03T01:52:55.160Z,99955.69
2022-08-03T01:53:44.947Z,99953.19
2022-08-03T01:54:36.870Z,99957.78
2022-08-03T01:55:27.482Z,99955.06
2022-08-03T01:56:14.500Z,99960.91
2022-08-03T01:57:02.610Z,99952.75
2022-08-03T01:58:05.247Z,99963.25
2022-08-03T01:58:54.170Z,99959.91
2022-08-03T01:59:42.533Z,99955.50
2022-08-03T02:00:30.249Z,99960.94
2022-08-03T02:01:17.481Z,99957.19
2022-08-03T02:02:15.546Z,99958.22
2022-08-03T02:03:13.557Z,99963.44
2022-08-03T02:04:01.265Z,99958.84
2022-08-03T02:04:48.419Z,99960.53
2022-08-03T02:05:35.589Z,99955.06
2022-08-03T02:07:02.058Z,99958.19
2022-08-03T02:07:30.353Z,99960.09
2022-08-03T02:08:18.399Z,99956.34
2022-08-03T02:09:07.238Z,99957.38
2022-08-03T02:09:54.971Z,99955.91
2022-08-03T02:10:42.688Z,99961.16
2022-08-03T02:11:31.841Z,99956.34
2022-08-03T02:12:19.430Z,99953.81
2022-08-03T02:13:08.259Z,99954.03
2022-08-03T02:13:55.149Z,99956.13
2022-08-03T02:14:44.748Z,99957.19
2022-08-03T02:15:33.189Z,99956.56
2022-08-03T02:16:20.387Z,99952.78
2022-08-03T02:17:08.401Z,99951.94
2022-08-03T02:17:56.026Z,99955.28
2022-08-03T02:18:42.889Z,99954.44
2022-08-03T02:19:35.500Z,99949.22
2022-08-03T02:20:22.719Z,99958.62
2022-08-03T02:21:11.395Z,99950.06
2022-08-03T02:22:18.482Z,99951.94
2022-08-03T02:23:06.858Z,99962.19
2022-08-03T02:23:53.660Z,99958.22
2022-08-03T02:24:40.869Z,99956.56
2022-08-03T02:25:28.568Z,99946.06
2022-08-03T02:26:17.919Z,99951.50
2022-08-03T02:27:08.231Z,99955.69
2022-08-03T02:28:09.140Z,99953.84
2022-08-03T02:28:57.247Z,99957.59
2022-08-03T02:29:47.418Z,99956.75
2022-08-03T02:30:39.489Z,99960.50
2022-08-03T02:31:29.390Z,99956.75
2022-08-03T02:32:18.562Z,99952.97
2022-08-03T02:33:08.890Z,99949.22
2022-08-03T02:34:02.899Z,99947.53
2022-08-03T02:34:52.411Z,99960.31
2022-08-03T02:35:40.198Z,99957.59
2022-08-03T02:36:29.598Z,99965.94
2022-08-03T02:37:19.774Z,99956.75
2022-08-03T02:38:08.559Z,99968.03
2022-08-03T02:38:57.769Z,99959.03
2022-08-03T02:39:47.608Z,99958.62
2022-08-03T02:40:34.481Z,99967.00
2022-08-03T02:41:40.116Z,99965.94
2022-08-03T02:42:27.290Z,99963.41
2022-08-03T02:43:18.459Z,99968.84
2022-08-03T02:44:10.079Z,99956.94
2022-08-03T02:44:58.877Z,99960.94
2022-08-03T02:45:48.308Z,99964.69
2022-08-03T02:46:40.319Z,99964.06
2022-08-03T02:47:29.059Z,99967.62
2022-08-03T02:48:37.438Z,99964.69
2022-08-03T02:49:40.814Z,99956.31
2022-08-03T02:50:31.856Z,99960.50
2022-08-03T02:51:19.589Z,99958.00
2022-08-03T02:52:13.083Z,99960.06
2022-08-03T02:53:02.158Z,99972.81
2022-08-03T02:53:49.129Z,99966.56
2022-08-03T02:54:36.467Z,99959.88
2022-08-03T02:55:24.149Z,99962.37
2022-08-03T02:56:12.010Z,99966.12
2022-08-03T02:56:59.238Z,99965.31
2022-08-03T02:57:47.187Z,99964.88
2022-08-03T02:58:34.239Z,99968.03
2022-08-03T02:59:21.447Z,99968.22
2022-08-03T03:00:09.406Z,99971.56
2022-08-03T03:00:56.553Z,99967.41
2022-08-03T03:01:44.647Z,99968.66
2022-08-03T03:02:32.215Z,99971.16
2022-08-03T03:03:19.416Z,99967.41
2022-08-03T03:04:07.777Z,99969.28
2022-08-03T03:05:52.634Z,99972.81
2022-08-03T03:06:05.812Z,99969.91
2022-08-03T03:06:53.108Z,99974.72
2022-08-03T03:07:53.091Z,99970.31
2022-08-03T03:08:40.189Z,99985.78
2022-08-03T03:09:27.058Z,99976.59
2022-08-03T03:10:27.378Z,99968.22
2022-08-03T03:11:15.679Z,99971.81
2022-08-03T03:12:03.276Z,99971.16
2022-08-03T03:12:55.738Z,99972.19
2022-08-03T03:13:44.487Z,99963.59
2022-08-03T03:14:33.746Z,99963.19
2022-08-03T03:15:21.514Z,99961.72
2022-08-03T03:16:08.878Z,99968.81
2022-08-03T03:16:57.822Z,99973.00
2022-08-03T03:17:45.038Z,99965.50
2022-08-03T03:18:33.469Z,99977.81
2022-08-03T03:19:20.448Z,99966.12
2022-08-03T03:20:08.346Z,99969.28
2022-08-03T03:20:55.839Z,99967.75
2022-08-03T03:21:43.886Z,99967.75
2022-08-03T03:22:31.768Z,99967.19
2022-08-03T03:23:18.587Z,99961.31
2022-08-03T03:24:06.638Z,99966.31
2022-08-03T03:24:54.851Z,99965.25
2022-08-03T03:25:41.968Z,99971.13
2022-08-03T03:26:28.979Z,99965.31
2022-08-03T03:27:16.700Z,99968.59
2022-08-03T03:28:04.949Z,99967.53
2022-08-03T03:28:53.279Z,99971.50
2022-08-03T03:29:40.168Z,99972.34
2022-08-03T03:30:27.491Z,99963.56
2022-08-03T03:31:14.329Z,99970.87
2022-08-03T03:32:01.687Z,99967.97
2022-08-03T03:32:52.195Z,99976.75
2022-08-03T03:33:39.708Z,99977.59
2022-08-03T03:34:26.490Z,99974.47
2022-08-03T03:35:16.780Z,99970.94
2022-08-03T03:36:04.978Z,99963.84
2022-08-03T03:36:51.728Z,99970.72
2022-08-03T03:37:38.566Z,99965.69
2022-08-03T03:38:25.567Z,99970.09
2022-08-03T03:39:15.165Z,99969.44
2022-08-03T03:40:03.847Z,99964.66
2022-08-03T03:40:50.663Z,99971.37
2022-08-03T03:41:37.497Z,99971.37
2022-08-03T03:42:25.547Z,99971.56
2022-08-03T03:43:12.863Z,99971.37
2022-08-03T03:43:59.799Z,99965.69
2022-08-03T03:44:46.597Z,99976.16
2022-08-03T03:45:34.969Z,99964.66
2022-08-03T03:46:21.985Z,99971.37
2022-08-03T03:47:08.808Z,99966.75
2022-08-03T03:47:55.767Z,99968.44
2022-08-03T03:48:42.698Z,99973.03
2022-08-03T03:49:29.590Z,99972.19
2022-08-03T03:50:18.727Z,99972.44
2022-08-03T03:51:06.186Z,99974.28
2022-08-03T03:51:55.200Z,99981.41
2022-08-03T03:52:41.989Z,99971.56
2022-08-03T03:53:28.757Z,99973.91
2022-08-03T03:54:15.547Z,99973.69
2022-08-03T03:55:02.388Z,99970.97
2022-08-03T03:55:59.539Z,99963.03
2022-08-03T03:56:49.842Z,99972.44
2022-08-03T03:57:36.608Z,99969.28
2022-08-03T03:58:23.367Z,99969.50
2022-08-03T03:59:11.837Z,99978.28
2022-08-03T03:59:58.587Z,99974.53
2022-08-03T04:00:45.508Z,99975.59
2022-08-03T04:01:32.607Z,99981.41
2022-08-03T04:02:19.307Z,99978.31
2022-08-03T04:03:06.026Z,99985.81
2022-08-03T04:03:54.976Z,99977.25
2022-08-03T04:05:00.616Z,99979.31
2022-08-03T04:06:06.298Z,99980.59
2022-08-03T04:07:12.225Z,99986.03
2022-08-03T04:08:18.907Z,99990.19
2022-08-03T04:09:25.418Z,99990.44
2022-08-03T04:10:42.070Z,99986.22
2022-08-03T04:11:32.180Z,99990.00
2022-08-03T04:12:20.028Z,99992.91
2022-08-03T04:13:10.258Z,99992.94
2022-08-03T04:13:57.648Z,99988.34
2022-08-03T04:14:49.107Z,99994.78
2022-08-03T04:15:38.217Z,99991.88
2022-08-03T04:16:28.407Z,99993.56
2022-08-03T04:17:15.538Z,99989.59
2022-08-03T04:18:04.690Z,99993.97
2022-08-03T04:18:54.776Z,99987.06
2022-08-03T04:19:48.527Z,99992.50
2022-08-03T04:20:36.247Z,100001.28
2022-08-03T04:21:23.728Z,100007.53
2022-08-03T04:22:15.029Z,100007.41
2022-08-03T04:23:03.299Z,100011.69
2022-08-03T04:24:02.447Z,100007.31
2022-08-03T04:24:52.708Z,100005.28
2022-08-03T04:25:40.568Z,100004.81
2022-08-03T04:26:30.598Z,100000.63
2022-08-03T04:27:23.907Z,100000.75
2022-08-03T04:28:30.005Z,100004.81
2022-08-03T04:29:19.178Z,100004.06
2022-08-03T04:30:07.279Z,100001.59
2022-08-03T04:30:54.587Z,100002.78
2022-08-03T04:31:43.678Z,100005.84
2022-08-03T04:32:30.907Z,100003.81
2022-08-03T04:33:18.218Z,100000.50
2022-08-03T04:34:06.182Z,99998.09
2022-08-03T04:34:53.118Z,100001.19
2022-08-03T04:36:01.657Z,99997.25
2022-08-03T04:36:50.479Z,100008.81
2022-08-03T04:37:44.278Z,99999.47
2022-08-03T04:38:40.485Z,100001.81
2022-08-03T04:39:30.046Z,100009.09
2022-08-03T04:40:32.607Z,100010.16
2022-08-03T04:41:21.587Z,100005.44
2022-08-03T04:42:09.502Z,100009.19
2022-08-03T04:42:56.711Z,100004.00
2022-08-03T04:43:43.964Z,99998.91
2022-08-03T04:44:31.977Z,100000.97
2022-08-03T04:45:19.537Z,99993.25
2022-08-03T04:46:07.397Z,99998.16
2022-08-03T04:46:54.262Z,100000.88
2022-08-03T04:47:41.778Z,100006.22
2022-08-03T04:48:28.747Z,100000.69
2022-08-03T04:49:16.298Z,100006.91
2022-08-03T04:50:04.957Z,100001.56
2022-08-03T04:50:54.187Z,100004.88
2022-08-03T04:51:41.067Z,100001.66
2022-08-03T04:52:27.877Z,100000.09
2022-08-03T04:53:14.627Z,100002.47
2022-08-03T04:54:02.255Z,100003.50
2022-08-03T04:54:50.820Z,100006.06
2022-08-03T04:55:37.802Z,100005.28
2022-08-03T04:56:24.687Z,99996.91
2022-08-03T04:57:22.331Z,99998.41
2022-08-03T04:58:10.617Z,99992.34
2022-08-03T04:58:57.417Z,100000.34
2022-08-03T04:59:44.311Z,99990.12
2022-08-03T05:00:31.623Z,99990.06
2022-08-03T05:01:20.619Z,99990.72
2022-08-03T05:02:07.520Z,99994.50
2022-08-03T05:02:54.487Z,99994.63
2022-08-03T05:03:41.268Z,99987.00
2022-08-03T05:04:28.008Z,99989.50
2022-08-03T05:05:16.015Z,99996.94
2022-08-03T05:06:09.683Z,100002.53
2022-08-03T05:06:57.998Z,100001.06
2022-08-03T05:07:45.150Z,100002.87
2022-08-03T05:08:32.028Z,99997.62
2022-08-03T05:09:25.924Z,100000.66
2022-08-03T05:10:25.659Z,99998.28
2022-08-03T05:11:12.476Z,100004.31
2022-08-03T05:11:59.201Z,99995.72
2022-08-03T05:12:46.614Z,100000.13
2022-08-03T05:13:33.506Z,100000.50
2022-08-03T05:14:28.307Z,100007.78
2022-08-03T05:15:15.388Z,100001.44
2022-08-03T05:16:02.287Z,100003.06
2022-08-03T05:16:49.039Z,100003.53
2022-08-03T05:17:38.097Z,100000.59
2022-08-03T05:18:24.896Z,99997.22
2022-08-03T05:19:11.618Z,99996.91
2022-08-03T05:19:58.278Z,99998.28
2022-08-03T05:20:45.049Z,99996.56
2022-08-03T05:21:50.313Z,99992.69
2022-08-03T05:22:39.073Z,99997.62
2022-08-03T05:23:25.833Z,99995.97
2022-08-03T05:24:12.569Z,99999.84
2022-08-03T05:24:59.348Z,99994.16
2022-08-03T05:25:50.044Z,99993.63
2022-08-03T05:26:37.399Z,100009.09
2022-08-03T05:27:24.157Z,100006.28
2022-08-03T05:28:10.940Z,99996.31
2022-08-03T05:28:57.651Z,99999.66
2022-08-03T05:29:44.420Z,100009.53
2022-08-03T05:30:34.017Z,100000.94
2022-08-03T05:31:21.228Z,100003.44
2022-08-03T05:32:08.515Z,100000.78
2022-08-03T05:32:55.688Z,100010.75
2022-08-03T05:33:44.958Z,100009.06
2022-08-03T05:34:32.108Z,100012.63
2022-08-03T05:35:57.366Z,100014.53
2022-08-03T05:36:25.538Z,100013.03
2022-08-03T05:37:12.439Z,100007.50
2022-08-03T05:37:59.179Z,100011.31
2022-08-03T05:38:46.028Z,100018.12
2022-08-03T05:39:33.258Z,100018.09
2022-08-03T05:40:20.178Z,100016.31
2022-08-03T05:41:22.580Z,100009.25
2022-08-03T05:42:10.840Z,100013.34
2022-08-03T05:42:57.768Z,100015.69
2022-08-03T05:43:45.299Z,100019.41
2022-08-03T05:44:32.362Z,100018.91
2022-08-03T05:45:19.148Z,100015.44
2022-08-03T05:46:12.275Z,100015.69
2022-08-03T05:46:59.668Z,100013.78
2022-08-03T05:47:46.627Z,100018.34
2022-08-03T05:48:33.358Z,100014.66
2022-08-03T05:49:20.685Z,100026.38
2022-08-03T05:50:08.129Z,100014.44
2022-08-03T05:50:54.899Z,100015.91
2022-08-03T05:51:41.665Z,100018.66
2022-08-03T05:52:28.597Z,100024.44
2022-08-03T05:53:15.451Z,100020.63
2022-08-03T05:54:02.657Z,100015.19
2022-08-03T05:54:56.647Z,100018.84
2022-08-03T05:55:44.387Z,100010.78
2022-08-03T05:56:31.304Z,100014.91
2022-08-03T05:57:18.088Z,100015.22
2022-08-03T05:58:05.049Z,100016.87
2022-08-03T05:58:52.679Z,100023.56
2022-08-03T05:59:39.360Z,100022.25
2022-08-03T06:00:40.488Z,100024.38
2022-08-03T06:01:27.442Z,100024.84
2022-08-03T06:02:14.309Z,100022.38
2022-08-03T06:03:01.187Z,100024.78
2022-08-03T06:03:48.879Z,100023.87
2022-08-03T06:04:35.620Z,100022.56
2022-08-03T06:05:22.370Z,100024.97
2022-08-03T06:06:09.169Z,100026.63
2022-08-03T06:06:55.956Z,100021.97
2022-08-03T06:07:42.759Z,100019.91
2022-08-03T06:08:29.497Z,100027.84
2022-08-03T06:09:17.132Z,100029.50
2022-08-03T06:10:35.416Z,100024.84
2022-08-03T06:11:12.809Z,100029.81
2022-08-03T06:11:59.587Z,100034.59
2022-08-03T06:12:49.459Z,100033.28
2022-08-03T06:13:36.378Z,100035.44
2022-08-03T06:14:23.158Z,100035.19
2022-08-03T06:15:11.282Z,100035.78
2022-08-03T06:15:58.409Z,100033.63
2022-08-03T06:16:45.168Z,100025.62
2022-08-03T06:17:37.241Z,100031.16
2022-08-03T06:18:24.822Z,100032.53
2022-08-03T06:19:11.591Z,100029.56
2022-08-03T06:19:58.539Z,100030.37
2022-08-03T06:20:45.538Z,100031.53
2022-08-03T06:21:34.038Z,100034.59
2022-08-03T06:22:21.519Z,100033.56
2022-08-03T06:23:08.290Z,100031.53
2022-08-03T06:24:03.046Z,100033.41
2022-08-03T06:24:53.654Z,100027.59
2022-08-03T06:25:40.579Z,100029.00
2022-08-03T06:26:28.730Z,100030.16
2022-08-03T06:27:15.603Z,100035.66
2022-08-03T06:28:02.496Z,100042.56
2022-08-03T06:28:53.203Z,100029.59
2022-08-03T06:29:40.940Z,100028.44
2022-08-03T06:30:27.839Z,100031.22
2022-08-03T06:31:14.619Z,100033.44
2022-08-03T06:32:01.459Z,100033.22
2022-08-03T06:32:51.902Z,100032.19
2022-08-03T06:34:30.721Z,100034.69
2022-08-03T06:34:46.019Z,100038.31
2022-08-03T06:35:33.659Z,100028.97
2022-08-03T06:36:22.740Z,100035.56
2022-08-03T06:37:09.549Z,100037.28
2022-08-03T06:37:56.447Z,100037.84
2022-08-03T06:38:43.182Z,100043.34
2022-08-03T06:39:30.303Z,100043.34
2022-08-03T06:40:24.385Z,100051.03
2022-08-03T06:41:11.477Z,100049.75
2022-08-03T06:41:58.325Z,100043.81
2022-08-03T06:42:45.161Z,100046.94
2022-08-03T06:43:36.025Z,100046.47
2022-08-03T06:44:22.856Z,100042.62
2022-08-03T06:45:10.189Z,100046.81
2022-08-03T06:45:56.951Z,100044.63
2022-08-03T06:46:43.706Z,100051.03
2022-08-03T06:47:30.518Z,100046.91
2022-08-03T06:48:17.759Z,100049.63
2022-08-03T06:49:04.720Z,100049.63
2022-08-03T06:50:16.267Z,100047.97
2022-08-03T06:50:58.318Z,100051.53
2022-08-03T06:52:04.568Z,100053.19
2022-08-03T06:52:51.900Z,100056.47
2022-08-03T06:53:38.812Z,100053.22
2022-08-03T06:54:25.709Z,100054.09
2022-08-03T06:55:12.452Z,100054.16
2022-08-03T06:55:59.269Z,100049.75
2022-08-03T06:56:46.019Z,100057.19
2022-08-03T06:57:32.816Z,100053.00
2022-08-03T06:58:19.641Z,100059.91
2022-08-03T06:59:06.423Z,100063.78
2022-08-03T07:00:10.363Z,100056.03
2022-08-03T07:00:58.620Z,100060.69
2022-08-03T07:01:45.534Z,100055.44
2022-08-03T07:02:32.340Z,100055.44
2022-08-03T07:03:19.151Z,100056.78
2022-08-03T07:04:06.240Z,100061.78
2022-08-03T07:04:52.993Z,100062.59
2022-08-03T07:05:40.248Z,100054.03
2022-08-03T07:06:27.091Z,100055.13
2022-08-03T07:07:14.248Z,100059.03
2022-08-03T07:08:03.261Z,100061.81
2022-08-03T07:08:52.945Z,100051.59
2022-08-03T07:09:41.731Z,100053.22
2022-08-03T07:10:28.919Z,100060.16
2022-08-03T07:11:15.720Z,100053.56
2022-08-03T07:12:02.678Z,100049.41
2022-08-03T07:12:55.865Z,100057.16
2022-08-03T07:13:43.710Z,100053.56
2022-08-03T07:14:30.479Z,100056.06
2022-08-03T07:15:20.238Z,100052.81
2022-08-03T07:16:25.213Z,100051.69
2022-08-03T07:17:12.138Z,100058.31
2022-08-03T07:17:58.987Z,100055.56
2022-08-03T07:18:45.699Z,100054.16
2022-08-03T07:19:32.391Z,100050.03
2022-08-03T07:20:19.498Z,100051.97
2022-08-03T07:21:06.441Z,100047.53
2022-08-03T07:21:53.555Z,100046.12
2022-08-03T07:22:40.428Z,100050.56
2022-08-03T07:23:27.271Z,100045.84
2022-08-03T07:24:14.043Z,100047.25
2022-08-03T07:25:00.841Z,100042.28
2022-08-03T07:25:47.570Z,100050.84
2022-08-03T07:26:34.349Z,100051.41
2022-08-03T07:27:21.518Z,100053.59
2022-08-03T07:28:08.600Z,100046.69
2022-08-03T07:28:55.490Z,100048.94
2022-08-03T07:29:42.399Z,100038.69
2022-08-03T07:30:29.119Z,100043.97
2022-08-03T07:31:15.910Z,100040.59
2022-08-03T07:32:03.931Z,100040.06
2022-08-03T07:32:50.898Z,100046.94
2022-08-03T07:33:37.619Z,100039.75
2022-08-03T07:34:24.371Z,100037.81
2022-08-03T07:35:25.187Z,100041.38
2022-08-03T07:36:12.189Z,100035.06
2022-08-03T07:36:59.019Z,100038.34
2022-08-03T07:37:46.122Z,100041.91
2022-08-03T07:38:41.520Z,100039.44
2022-08-03T07:39:28.227Z,100042.47
2022-08-03T07:40:14.921Z,100035.50
2022-08-03T07:41:01.589Z,100042.16
2022-08-03T07:41:50.630Z,100036.06
2022-08-03T07:42:37.319Z,100041.63
2022-08-03T07:43:24.502Z,100038.28
2022-08-03T07:44:11.162Z,100032.44
2022-08-03T07:44:58.749Z,100035.50
2022-08-03T07:45:45.441Z,100035.44
2022-08-03T07:46:32.966Z,100042.09
2022-08-03T07:47:23.987Z,100031.81
2022-08-03T07:48:12.623Z,100035.09
2022-08-03T07:48:59.427Z,100040.09
2022-08-03T07:49:47.022Z,100038.72
2022-08-03T07:50:33.979Z,100047.09
2022-08-03T07:51:20.707Z,100041.78
2022-08-03T07:52:28.383Z,100040.41
2022-08-03T07:53:15.249Z,100042.09
2022-08-03T07:54:01.949Z,100041.50
2022-08-03T07:54:48.610Z,100036.50
2022-08-03T07:55:35.341Z,100030.97
2022-08-03T07:56:22.924Z,100038.19
2022-08-03T07:57:09.557Z,100036.25
2022-08-03T07:58:07.862Z,100033.19
2022-08-03T07:58:55.462Z,100036.56
2022-08-03T08:00:01.485Z,100035.16
2022-08-03T08:00:48.970Z,100044.28
2022-08-03T08:01:38.072Z,100034.34
2022-08-03T08:02:24.982Z,100039.34
2022-08-03T08:03:12.419Z,100039.06
2022-08-03T08:03:59.049Z,100041.78
2022-08-03T08:04:45.688Z,100036.56
2022-08-03T08:05:32.488Z,100038.19
2022-08-03T08:06:19.400Z,100033.47
2022-08-03T08:07:06.160Z,100038.75
2022-08-03T08:07:52.837Z,100033.44
2022-08-03T08:08:40.189Z,100040.66
2022-08-03T08:09:26.971Z,100038.78
2022-08-03T08:10:16.193Z,100039.28
2022-08-03T08:11:02.868Z,100042.56
2022-08-03T08:11:50.352Z,100037.88
2022-08-03T08:12:38.703Z,100044.50
2022-08-03T08:13:25.392Z,100044.19
2022-08-03T08:14:12.591Z,100043.38
2022-08-03T08:15:00.051Z,100045.62
2022-08-03T08:15:46.940Z,100042.53
2022-08-03T08:16:34.079Z,100038.09
2022-08-03T08:17:20.832Z,100039.78
2022-08-03T08:18:07.458Z,100046.12
2022-08-03T08:18:54.199Z,100043.09
2022-08-03T08:19:43.777Z,100041.41
2022-08-03T08:20:39.109Z,100043.09
2022-08-03T08:21:27.289Z,100051.41
2022-08-03T08:22:33.988Z,100049.78
2022-08-03T08:23:41.964Z,100045.81
2022-08-03T08:24:30.618Z,100052.19
2022-08-03T08:25:19.361Z,100042.81
2022-08-03T08:26:06.188Z,100047.50
2022-08-03T08:26:52.838Z,100053.53
2022-08-03T08:28:22.276Z,100047.37
2022-08-03T08:28:54.839Z,100054.78
2022-08-03T08:29:52.664Z,100057.87
2022-08-03T08:30:43.318Z,100057.66
2022-08-03T08:31:30.230Z,100058.41
2022-08-03T08:32:17.011Z,100054.56
2022-08-03T08:33:03.999Z,100054.78
2022-08-03T08:34:05.915Z,100052.50
2022-08-03T08:34:53.378Z,100053.63
2022-08-03T08:35:40.151Z,100047.59
2022-08-03T08:36:26.964Z,100050.87
2022-08-03T08:37:13.719Z,100046.94
2022-08-03T08:38:05.558Z,100053.87
2022-08-03T08:38:52.724Z,100049.78
2022-08-03T08:39:39.580Z,100055.56
2022-08-03T08:40:27.754Z,100051.75
2022-08-03T08:41:15.478Z,100044.50
2022-08-03T08:42:02.259Z,100050.53
2022-08-03T08:42:58.464Z,100052.22
2022-08-03T08:43:45.758Z,100052.25
2022-08-03T08:44:32.469Z,100054.16
2022-08-03T08:45:19.588Z,100051.91
2022-08-03T08:46:08.626Z,100056.59
2022-08-03T08:46:55.970Z,100054.03
2022-08-03T08:47:51.525Z,100053.53
2022-08-03T08:48:42.709Z,100056.50
2022-08-03T08:49:30.291Z,100055.09
2022-08-03T08:50:27.629Z,100048.19
2022-08-03T08:51:16.871Z,100051.22
2022-08-03T08:52:04.432Z,100052.00
2022-08-03T08:53:17.640Z,100049.00
2022-08-03T08:54:08.328Z,100048.03
2022-08-03T08:55:04.288Z,100053.38
2022-08-03T08:55:58.557Z,100043.38
2022-08-03T08:56:47.408Z,100050.75
2022-08-03T08:57:43.246Z,100045.25
2022-08-03T08:58:37.446Z,100049.66
2022-08-03T08:59:25.609Z,100048.25
2022-08-03T09:00:14.844Z,100044.63
2022-08-03T09:01:01.725Z,100041.25
2022-08-03T09:01:48.618Z,100042.03
2022-08-03T09:02:35.744Z,100048.44
2022-08-03T09:03:30.182Z,100040.91
2022-08-03T09:04:17.818Z,100039.28
2022-08-03T09:05:07.496Z,100040.34
2022-08-03T09:05:56.337Z,100035.28
2022-08-03T09:06:58.608Z,100035.84
2022-08-03T09:07:50.357Z,100034.41
2022-08-03T09:08:37.199Z,100034.06
2022-08-03T09:10:08.834Z,100036.84
2022-08-03T09:10:31.079Z,100039.03
2022-08-03T09:11:22.308Z,100047.22
2022-08-03T09:12:41.552Z,100043.06
2022-08-03T09:13:30.649Z,100032.88
2022-08-03T09:14:36.697Z,100025.88
2022-08-03T09:15:32.573Z,100030.87
2022-08-03T09:16:23.198Z,100037.13
2022-08-03T09:17:10.189Z,100033.75
2022-08-03T09:18:04.758Z,100037.06
2022-08-03T09:18:54.977Z,100037.03
2022-08-03T09:19:42.780Z,100035.59
2022-08-03T09:20:49.541Z,100035.62
2022-08-03T09:21:36.344Z,100038.75
2022-08-03T09:22:23.187Z,100040.09
2022-08-03T09:23:51.433Z,100036.81
2022-08-03T09:24:40.688Z,100036.78
2022-08-03T09:25:35.638Z,100032.78
2022-08-03T09:26:27.818Z,100029.88
2022-08-03T09:27:14.804Z,100026.41
2022-08-03T09:28:59.916Z,100024.13
2022-08-03T09:29:23.868Z,100031.41
2022-08-03T09:30:33.244Z,100030.87
2022-08-03T09:31:29.837Z,100023.53
2022-08-03T09:32:20.320Z,100026.66
2022-08-03T09:33:08.377Z,100021.88
2022-08-03T09:33:59.978Z,100024.56
2022-08-03T09:34:48.918Z,100028.69
2022-08-03T09:35:58.815Z,100031.38
2022-08-03T09:36:47.950Z,100029.66
2022-08-03T09:38:13.504Z,100022.91
2022-08-03T09:38:41.608Z,100023.59
2022-08-03T09:39:41.055Z,100025.84
2022-08-03T09:40:38.051Z,100016.59
2022-08-03T09:41:24.830Z,100020.13